US skater Shani Davis fails to medal, Groothuis wins gold in Men’s 1000 m (Full Results)

shanidavis

US Skater Shani Davis saw his bid for a three-peat in the Men’s 1000 m Speed Skating event go by the wayside.

Davis finished eighth as Stefan Groothuis of the Netherlands claimed the gold finishing 0.04 seconds ahead of Canada’s Denny Morrison. Michel Mulder of the Netherlands claimed the bronze.

Men’s 1000 m Speed Skating Results

Rank Country Name Result Difference
1 NED Stefan GROOTHUIS 1:08.39 0.00
2 CAN Denny MORRISON 1:08.43 +0.04
3 NED Michel MULDER 1:08.74 +0.35
4 GER Nico IHLE 1:08.86 +0.47
5 GER Samuel SCHWARZ 1:08.89 +0.50
6 NED Koen VERWEIJ 1:09.09 +0.70
7 KAZ Denis KUZIN 1:09.10 +0.71
8 USA Shani DAVIS 1:09.12 +0.73
9 USA Brian HANSEN 1:09.21 +0.82
10 NED Mark TUITERT 1:09.29 +0.90
11 NOR Havard LORENTZEN 1:09.33 +0.94
12 KOR Tae Bum MO 1:09.37 +0.98
13 KAZ Roman KRECH 1:09.63 +1.24
14 POL Zbigniew BRODKA 1:09.66 +1.27
15 USA Joey MANTIA 1:09.72 +1.33
16 POL Konrad NIEDZWIEDZKI 1:09.76 +1.37
17 RUS Denis YUSKOV 1:09.81 +1.42
18 RUS Aleksey YESIN 1:09.93 +1.54
19 NOR Havard BOKKO 1:09.98 +1.59
20 CAN Vincent DE HAITRE 1:10.040 +1.65
21 KOR Kyou Hyuk LEE 1:10.049 +1.65
22 AUS Daniel GREIG 1:10.13 +1.74
23 BEL Bart SWINGS 1:10.14 +1.75
24 LAT Haralds SILOVS 1:10.29 +1.90
25 ITA Mirko NENZI 1:10.32 +1.93
26 CAN William DUTTON 1:10.61 +2.22
27 RUS Dmitry LOBKOV 1:10.65 +2.26
28 USA Jonathan GARCIA 1:10.74 +2.35
29 FRA Benjamin MACE 1:10.80 +2.41
30 KOR Taeyun KIM 1:10.81 +2.42
31 NOR Espen HVAMMEN 1:11.01 +2.62
32 CAN Muncef OUARDI 1:11.07 +2.68
33 KAZ Fyodor MEZENTSEV 1:11.08 +2.69
34 CHN Guojun TIAN 1:11.17 +2.78
35 JPN Taro KONDO 1:11.44 +3.05
36 JPN Daichi YAMANAKA 1:11.93 +3.54
37 FIN Tommi PULLI 1:12.16 +3.77
38 SWE David ANDERSSON 1:12.40 +4.01
39 RUS Igor BOGOLYUBSKY 1:12.85 +4.46
40 TPE Ching-Yang SUNG 1:13.79 +5.40